Gorin, Missouri
Current Conditions -  °F | °C
As of 6:55 PM on Friday 24 Oct 2014 (Local Time) from KEOK Reporting Station
Clear Clear  
Wind Chill: 64°   Ceiling: Unl
Heat Index: 64°   Visibility: 10mi
Dew Point: 59°   Wind: 8mph
Humidity: 83%   Direction: 200°SSW
Pressure: 29.92"   Gusts: NA
Location:  40.36°N, 92.02°W
Report Text: KEOK 242355Z AUTO 20007KT 10SM CLR 18/15 A2992 RMK AO2
Loading
Personal Weather Stations






























Interactive Weather Map
Tropical Storm Tracking
New forecast layout! Learn more

10-Day Weather Forecast

Advertisements
Track Severe Weather on mobile